Markleeville, CA

9:20 AM PDT on October 23, 2014 (GMT -0700)
RAWS MARKLEEVILLE CA US | Change Station
CLOSE
Current Station
Personal Weather Station
Location: Markleeville, CA
Elevation: 5500 ft
Nearby Weather Stations

Elev 5500 ft 38.69 °N, 119.77 °W | Updated 1 hour ago

Partly Cloudy
Partly Cloudy
56 °F
Feels Like 56 °F
N
6
Wind Variable Wind from SSW
Gusts 14.0 mph

Today
High -- | Low -- °F
--% Chance of Precip.
Yesterday
High -- | Low -- °F
Precip. -- in
7:16 AM 6:09 PM
Waning Crescent, 0% visible
Pressure 30.06 in
Visibility 10.0 miles
Clouds Clear
Dew Point 23 °F
Humidity 28%
Rainfall 0.00 in
Snow Depth 0 in , 1 in , 1 in
UV 1 out of 12
Pollen 2.50 out of 12
Air Quality Not available.
Flu Activity Sporadic
METAR KTVL 231553Z AUTO 15007KT 10SM CLR 14/M03 A3018 RMK AO2 SLP177 T01391033

More Conditions Fewer Conditions

Pressure 30.06 in
Visibility 10.0 miles
Clouds Clear
Dew Point 23 °F
Humidity 28%
Rainfall 0.00 in
Snow Depth 0 in , 1 in , 1 in
UV 1 out of 12
Pollen 2.50 out of 12
Air Quality Not available.
Flu Activity Sporadic
METAR KTVL 231553Z AUTO 15007KT 10SM CLR 14/M03 A3018 RMK AO2 SLP177 T01391033

More Conditions Fewer Conditions

10-Day Weather Forecast

Almanac

Astronomy

Oct. 23, 2014 Rise Set
Actual Time 7:16 AM PDT 6:09 PM PDT
Civil Twilight 6:49 AM PDT 6:36 PM PDT
Nautical Twilight 6:18 AM PDT 7:07 PM PDT
Astronomical Twilight 5:47 AM PDT 7:38 PM PDT
Moon 7:01 AM PDT 6:14 PM PDT
Length of Visible Light 11h 47m
Length of Day
10h 53m
Tomorrow will be 2m 20s shorter.
Waning Crescent, 0% of the Moon is Illuminated
Today
Waning Crescent
Oct 23
New
Oct 30
First Quarter
Nov 6
Full
Nov 14
Last Quarter

Today's Extremes

State Highs State Lows

Community

WunderPhotos

Upload Photos

1,764,297 photos uploaded!

Nearby

Snow Depth

Station Depth Elevation
Spratt Creek 0 in 6200 ft
Burnside Lake 1 in 8139 ft
Monitor Pass 1 in 8350 ft
Forestdale Creek 0 in 8029 ft
Blue Lakes 0 in 8000 ft

Earthquake Activity

City Distance Mag. Time & Date
Gerlach-Empire, Nevada 108 miles 2.6 7:16 AM PDT
2014-10-23
Mammoth Lakes, California 99 miles 3.0 11:10 PM PDT
2014-10-20
Minimum magnitude displayed is 2.5.

Coastal Water Temperatures

Place Temperature
No Stations Reporting

Nearby Weather Stations